createdAt,value
2022-10-09T00:00:03.628Z,2.60
2022-10-09T00:02:43.692Z,2.40
2022-10-09T00:05:15.599Z,2.40
2022-10-09T00:07:47.345Z,2.20
2022-10-09T00:10:19.085Z,2.10
2022-10-09T00:12:51.319Z,2.53
2022-10-09T00:15:23.541Z,2.20
2022-10-09T00:17:55.318Z,2.33
2022-10-09T00:20:27.028Z,2.10
2022-10-09T00:22:58.745Z,2.40
2022-10-09T00:25:30.486Z,1.67
2022-10-09T00:28:02.943Z,2.20
2022-10-09T00:30:34.806Z,2.33
2022-10-09T00:33:06.658Z,2.00
2022-10-09T00:35:39.537Z,2.20
2022-10-09T00:38:11.537Z,2.00
2022-10-09T00:40:43.465Z,1.90
2022-10-09T00:43:17.751Z,2.10
2022-10-09T00:45:55.889Z,2.10
2022-10-09T00:48:27.668Z,2.30
2022-10-09T00:51:01.933Z,2.13
2022-10-09T00:53:33.710Z,1.93
2022-10-09T00:56:05.745Z,1.67
2022-10-09T00:58:37.491Z,1.87
2022-10-09T01:01:09.281Z,1.87
2022-10-09T01:03:42.044Z,2.10
2022-10-09T01:06:44.121Z,1.93
2022-10-09T01:09:23.392Z,1.83
2022-10-09T01:12:06.179Z,2.27
2022-10-09T01:15:04.276Z,1.67
2022-10-09T01:17:50.865Z,1.90
2022-10-09T01:20:54.029Z,1.83
2022-10-09T01:23:37.475Z,2.07
2022-10-09T01:26:33.317Z,2.10
2022-10-09T01:29:07.241Z,3.10
2022-10-09T01:31:44.112Z,2.50
2022-10-09T01:34:17.872Z,2.67
2022-10-09T01:36:51.630Z,2.20
2022-10-09T01:39:25.175Z,2.60
2022-10-09T01:41:57.709Z,2.80
2022-10-09T01:44:31.645Z,1.90
2022-10-09T01:47:04.615Z,2.47
2022-10-09T01:49:57.616Z,2.40
2022-10-09T01:52:29.296Z,1.90
2022-10-09T01:55:18.387Z,2.70
2022-10-09T01:57:53.146Z,2.50
2022-10-09T02:00:25.974Z,2.30
2022-10-09T02:02:58.657Z,2.37
2022-10-09T02:05:31.339Z,2.37
2022-10-09T02:08:03.446Z,2.50
2022-10-09T02:10:37.171Z,2.43
2022-10-09T02:13:08.876Z,2.60
2022-10-09T02:16:01.613Z,2.67
2022-10-09T02:18:39.685Z,2.53
2022-10-09T02:21:15.878Z,2.60
2022-10-09T02:23:49.804Z,3.10
2022-10-09T02:26:21.875Z,3.10
2022-10-09T02:28:54.053Z,2.30
2022-10-09T02:31:36.753Z,2.90
2022-10-09T02:34:11.163Z,2.97
2022-10-09T02:36:43.078Z,3.03
2022-10-09T02:39:14.855Z,2.40
2022-10-09T02:41:46.596Z,2.50
2022-10-09T02:44:18.307Z,2.53
2022-10-09T02:46:50.099Z,2.37
2022-10-09T02:49:22.046Z,2.50
2022-10-09T02:51:53.940Z,2.50
2022-10-09T02:54:25.683Z,2.90
2022-10-09T02:56:57.441Z,3.20
2022-10-09T02:59:29.188Z,2.70
2022-10-09T03:02:01.015Z,2.57
2022-10-09T03:04:32.748Z,2.73
2022-10-09T03:07:04.473Z,3.33
2022-10-09T03:09:36.272Z,2.70
2022-10-09T03:12:07.968Z,2.20
2022-10-09T03:14:39.675Z,2.83
2022-10-09T03:17:11.390Z,3.10
2022-10-09T03:19:43.098Z,2.30
2022-10-09T03:22:14.814Z,1.90
2022-10-09T03:24:46.519Z,2.00
2022-10-09T03:27:18.236Z,2.97
2022-10-09T03:29:49.961Z,2.60
2022-10-09T03:32:21.746Z,2.37
2022-10-09T03:34:53.629Z,2.47
2022-10-09T03:37:25.359Z,2.87
2022-10-09T03:39:57.268Z,2.57
2022-10-09T03:42:28.973Z,2.80
2022-10-09T03:45:04.427Z,2.60
2022-10-09T03:47:36.137Z,3.10
2022-10-09T03:50:08.356Z,2.53
2022-10-09T03:52:40.985Z,2.57
2022-10-09T03:55:12.719Z,2.30
2022-10-09T03:57:44.425Z,2.47
2022-10-09T04:00:16.775Z,2.03
2022-10-09T04:02:48.819Z,3.10
2022-10-09T04:05:20.966Z,2.43
2022-10-09T04:07:52.744Z,2.70
2022-10-09T04:10:25.096Z,2.73
2022-10-09T04:12:56.821Z,2.77
2022-10-09T04:15:28.591Z,2.83
2022-10-09T04:18:00.344Z,2.53
2022-10-09T04:20:32.236Z,3.67
2022-10-09T04:23:03.981Z,2.67
2022-10-09T04:25:35.691Z,2.90
2022-10-09T04:28:07.446Z,3.27
2022-10-09T04:30:39.235Z,3.00
2022-10-09T04:33:13.138Z,3.20
2022-10-09T04:35:46.506Z,3.00
2022-10-09T04:38:18.458Z,3.00
2022-10-09T04:41:04.402Z,2.70
2022-10-09T04:43:36.150Z,2.77
2022-10-09T04:46:11.436Z,2.90
2022-10-09T04:48:45.958Z,2.97
2022-10-09T04:51:18.534Z,3.40
2022-10-09T04:53:50.258Z,2.60
2022-10-09T04:56:23.082Z,3.40
2022-10-09T04:58:54.801Z,3.10
2022-10-09T05:01:28.307Z,2.77
2022-10-09T05:04:00.057Z,3.10
2022-10-09T05:06:31.876Z,2.70
2022-10-09T05:09:03.979Z,3.07
2022-10-09T05:11:39.193Z,2.97
2022-10-09T05:14:13.538Z,3.20
2022-10-09T05:17:11.987Z,3.43
2022-10-09T05:19:37.041Z,2.73
2022-10-09T05:22:08.761Z,3.00
2022-10-09T05:24:40.517Z,3.63
2022-10-09T05:27:12.228Z,3.20
2022-10-09T05:29:43.965Z,3.73
2022-10-09T05:32:15.732Z,3.83
2022-10-09T05:34:47.464Z,3.07
2022-10-09T05:37:19.172Z,3.37
2022-10-09T05:39:50.892Z,3.80
2022-10-09T05:42:22.594Z,3.70
2022-10-09T05:44:54.314Z,2.70
2022-10-09T05:47:26.017Z,2.60
2022-10-09T05:49:57.747Z,2.73
2022-10-09T05:52:29.463Z,3.07
2022-10-09T05:55:01.367Z,3.00
2022-10-09T05:57:33.270Z,2.63
2022-10-09T06:00:05.416Z,3.20
2022-10-09T06:02:44.046Z,2.93
2022-10-09T06:05:16.206Z,3.23
2022-10-09T06:07:48.044Z,4.00
2022-10-09T06:10:19.805Z,3.37
2022-10-09T06:12:51.791Z,3.40
2022-10-09T06:15:23.637Z,4.00
2022-10-09T06:17:55.758Z,3.17
2022-10-09T06:20:27.466Z,3.47
2022-10-09T06:22:59.163Z,3.93
2022-10-09T06:25:30.891Z,2.97
2022-10-09T06:28:02.714Z,3.17
2022-10-09T06:30:38.578Z,3.23
2022-10-09T06:33:10.659Z,2.97
2022-10-09T06:35:42.681Z,3.50
2022-10-09T06:38:15.382Z,3.17
2022-10-09T06:40:47.096Z,3.90
2022-10-09T06:43:18.889Z,4.00
2022-10-09T06:45:50.711Z,3.13
2022-10-09T06:48:22.549Z,3.93
2022-10-09T06:50:54.258Z,3.63
2022-10-09T06:53:26.040Z,4.20
2022-10-09T06:55:58.940Z,3.47
2022-10-09T06:58:31.050Z,4.47
2022-10-09T07:01:07.229Z,3.63
2022-10-09T07:03:41.239Z,4.40
2022-10-09T07:06:17.921Z,4.40
2022-10-09T07:08:52.199Z,3.27
2022-10-09T07:11:26.888Z,4.57
2022-10-09T07:14:01.330Z,4.70
2022-10-09T07:16:35.848Z,4.30
2022-10-09T07:19:10.970Z,4.47
2022-10-09T07:21:44.771Z,4.80
2022-10-09T07:24:17.125Z,4.10
2022-10-09T07:26:49.110Z,3.87
2022-10-09T07:29:20.852Z,4.47
2022-10-09T07:31:52.797Z,4.67
2022-10-09T07:34:24.585Z,4.43
2022-10-09T07:36:56.340Z,5.37
2022-10-09T07:39:28.049Z,4.20
2022-10-09T07:41:59.750Z,4.47
2022-10-09T07:44:31.669Z,4.77
2022-10-09T07:47:03.468Z,4.47
2022-10-09T07:49:35.152Z,4.23
2022-10-09T07:52:06.866Z,4.57
2022-10-09T07:54:38.605Z,4.47
2022-10-09T07:57:10.358Z,3.90
2022-10-09T07:59:42.061Z,4.10
2022-10-09T08:02:13.844Z,4.10
2022-10-09T08:04:45.592Z,4.17
2022-10-09T08:07:17.311Z,4.63
2022-10-09T08:09:49.020Z,4.37
2022-10-09T08:12:20.781Z,3.80
2022-10-09T08:14:52.588Z,4.37
2022-10-09T08:17:24.406Z,6.23
2022-10-09T08:19:58.030Z,4.90
2022-10-09T08:22:29.744Z,4.97
2022-10-09T08:25:01.523Z,5.33
2022-10-09T08:27:33.342Z,5.53
2022-10-09T08:30:05.496Z,4.63
2022-10-09T08:32:37.381Z,4.77
2022-10-09T08:35:09.689Z,4.00
2022-10-09T08:37:41.406Z,4.70
2022-10-09T08:40:25.964Z,4.17
2022-10-09T08:43:04.098Z,4.10
2022-10-09T08:45:38.918Z,4.77
2022-10-09T08:48:26.019Z,4.17
2022-10-09T08:51:00.248Z,4.07
2022-10-09T08:54:04.631Z,4.63
2022-10-09T08:56:37.864Z,4.00
2022-10-09T08:59:12.206Z,4.70
2022-10-09T09:02:14.624Z,4.30
2022-10-09T09:05:05.002Z,3.63
2022-10-09T09:07:50.329Z,3.70
2022-10-09T09:10:36.466Z,3.80
2022-10-09T09:13:45.490Z,3.27
2022-10-09T09:16:38.873Z,3.47
2022-10-09T09:19:34.168Z,3.50
2022-10-09T09:22:11.985Z,4.07
2022-10-09T09:24:49.444Z,3.50
2022-10-09T09:27:27.572Z,3.33
2022-10-09T09:30:14.775Z,3.20
2022-10-09T09:32:55.572Z,2.33
2022-10-09T09:35:39.828Z,2.43
2022-10-09T09:38:11.559Z,2.70
2022-10-09T09:40:47.192Z,2.97
2022-10-09T09:43:23.221Z,2.03
2022-10-09T09:45:57.814Z,2.30
2022-10-09T09:48:36.251Z,2.13
2022-10-09T09:51:27.932Z,2.00
2022-10-09T09:54:15.377Z,2.30
2022-10-09T09:57:11.278Z,1.97
2022-10-09T09:59:43.206Z,1.90
2022-10-09T10:02:22.017Z,2.03
2022-10-09T10:05:05.978Z,1.90
2022-10-09T10:07:38.933Z,1.70
2022-10-09T10:10:17.093Z,1.40
2022-10-09T10:12:53.787Z,1.73
2022-10-09T10:15:30.841Z,2.00
2022-10-09T10:18:04.749Z,1.60
2022-10-09T10:20:46.079Z,1.73
2022-10-09T10:23:23.610Z,1.90
2022-10-09T10:25:58.411Z,2.00
2022-10-09T10:28:37.836Z,2.30
2022-10-09T10:31:17.540Z,2.37
2022-10-09T10:33:55.282Z,2.23
2022-10-09T10:36:28.816Z,2.63
2022-10-09T10:39:18.237Z,2.50
2022-10-09T10:41:52.702Z,2.23
2022-10-09T10:44:43.462Z,2.40
2022-10-09T10:47:20.012Z,2.30
2022-10-09T10:49:51.930Z,2.17
2022-10-09T10:52:35.753Z,2.33
2022-10-09T10:55:21.251Z,3.33
2022-10-09T10:58:02.348Z,2.10
2022-10-09T11:00:41.124Z,2.00
2022-10-09T11:03:34.393Z,1.50
2022-10-09T11:06:29.883Z,1.80
2022-10-09T11:09:23.571Z,1.77
2022-10-09T11:12:19.286Z,1.97
2022-10-09T11:15:01.102Z,1.60
2022-10-09T11:17:40.236Z,1.80
2022-10-09T11:20:30.414Z,1.53
2022-10-09T11:23:47.955Z,1.60
2022-10-09T11:26:43.384Z,1.47
2022-10-09T11:29:22.229Z,1.07
2022-10-09T11:32:11.773Z,1.23
2022-10-09T11:34:50.057Z,1.13
2022-10-09T11:37:26.847Z,1.10
2022-10-09T11:39:58.593Z,0.93
2022-10-09T11:42:31.321Z,1.10
2022-10-09T11:45:07.935Z,1.20
2022-10-09T11:47:46.898Z,1.10
2022-10-09T11:50:21.731Z,1.40
2022-10-09T11:53:10.031Z,1.60
2022-10-09T11:55:43.184Z,1.73
2022-10-09T11:58:25.243Z,1.57
2022-10-09T12:01:13.696Z,1.60
2022-10-09T12:03:45.485Z,1.40
2022-10-09T12:06:18.064Z,1.30
2022-10-09T12:09:32.296Z,1.57
2022-10-09T12:12:16.001Z,1.30
2022-10-09T12:14:50.456Z,1.40
2022-10-09T12:17:22.141Z,1.40
2022-10-09T12:20:05.989Z,1.10
2022-10-09T12:22:49.305Z,1.23
2022-10-09T12:25:40.501Z,1.30
2022-10-09T12:28:21.909Z,1.20
2022-10-09T12:30:56.001Z,1.30
2022-10-09T12:33:39.325Z,1.40
2022-10-09T12:36:29.548Z,1.40
2022-10-09T12:39:24.315Z,1.33
2022-10-09T12:41:58.313Z,1.17
2022-10-09T12:44:38.524Z,1.37
2022-10-09T12:47:22.075Z,1.40
2022-10-09T12:50:17.254Z,1.40
2022-10-09T12:52:58.876Z,1.30
2022-10-09T12:55:36.074Z,1.53
2022-10-09T12:58:21.884Z,1.27
2022-10-09T13:00:56.606Z,1.30
2022-10-09T13:03:35.764Z,1.77
2022-10-09T13:06:14.530Z,1.83
2022-10-09T13:08:51.446Z,1.23
2022-10-09T13:11:38.021Z,1.30
2022-10-09T13:14:28.262Z,1.53
2022-10-09T13:17:00.732Z,1.07
2022-10-09T13:19:35.358Z,2.00
2022-10-09T13:22:23.712Z,1.50
2022-10-09T13:24:57.536Z,1.40
2022-10-09T13:27:37.858Z,1.00
2022-10-09T13:30:11.286Z,1.20
2022-10-09T13:32:43.041Z,1.17
2022-10-09T13:35:14.905Z,1.70
2022-10-09T13:37:46.991Z,1.30
2022-10-09T13:40:21.910Z,1.43
2022-10-09T13:42:57.374Z,1.27
2022-10-09T13:45:29.191Z,1.43
2022-10-09T13:48:01.567Z,1.10
2022-10-09T13:50:33.309Z,1.63
2022-10-09T13:53:05.205Z,1.20
2022-10-09T13:55:37.128Z,1.43
2022-10-09T13:58:09.154Z,1.50
2022-10-09T14:00:40.946Z,1.40
2022-10-09T14:03:12.831Z,1.27
2022-10-09T14:05:44.905Z,1.50
2022-10-09T14:08:16.666Z,1.20
2022-10-09T14:10:48.398Z,1.60
2022-10-09T14:13:21.389Z,1.57
2022-10-09T14:15:53.250Z,1.40
2022-10-09T14:18:25.081Z,1.30
2022-10-09T14:20:56.836Z,1.20
2022-10-09T14:23:28.556Z,1.30
2022-10-09T14:26:04.084Z,1.40
2022-10-09T14:28:35.883Z,1.40
2022-10-09T14:31:08.083Z,1.40
2022-10-09T14:33:40.408Z,1.30
2022-10-09T14:36:15.622Z,1.33
2022-10-09T14:38:48.871Z,1.37
2022-10-09T14:41:21.109Z,1.20
2022-10-09T14:44:00.481Z,1.47
2022-10-09T14:46:33.968Z,1.30
2022-10-09T14:49:07.935Z,1.40
2022-10-09T14:51:41.488Z,1.20
2022-10-09T14:54:13.420Z,1.00
2022-10-09T14:56:45.222Z,1.13
2022-10-09T14:59:17.286Z,1.30
2022-10-09T15:01:49.472Z,1.07
2022-10-09T15:04:21.436Z,1.23
2022-10-09T15:06:53.174Z,1.57
2022-10-09T15:09:25.161Z,1.50
2022-10-09T15:11:57.165Z,1.50
2022-10-09T15:14:29.129Z,1.23
2022-10-09T15:17:00.958Z,1.20
2022-10-09T15:19:32.912Z,1.10
2022-10-09T15:22:05.295Z,1.10
2022-10-09T15:24:37.272Z,1.10
2022-10-09T15:27:09.205Z,1.10
2022-10-09T15:29:40.993Z,1.00
2022-10-09T15:32:12.829Z,1.07
2022-10-09T15:34:44.651Z,1.20
2022-10-09T15:37:16.501Z,1.10
2022-10-09T15:39:48.269Z,1.30
2022-10-09T15:42:20.008Z,1.57
2022-10-09T15:44:52.016Z,1.63
2022-10-09T15:47:49.546Z,3.53
2022-10-09T15:50:16.342Z,10.80
2022-10-09T15:52:48.745Z,11.10
2022-10-09T15:55:21.334Z,4.00
2022-10-09T15:57:53.064Z,2.20
2022-10-09T16:00:24.794Z,1.57
2022-10-09T16:02:56.497Z,2.23
2022-10-09T16:05:28.363Z,2.23
2022-10-09T16:08:00.191Z,2.53
2022-10-09T16:10:32.340Z,3.20
2022-10-09T16:13:04.206Z,3.00
2022-10-09T16:15:42.471Z,2.80
2022-10-09T16:18:16.466Z,2.03
2022-10-09T16:20:48.895Z,2.10
2022-10-09T16:23:20.856Z,2.53
2022-10-09T16:26:00.501Z,2.30
2022-10-09T16:28:33.530Z,2.33
2022-10-09T16:31:05.940Z,2.80
2022-10-09T16:33:37.702Z,2.50
2022-10-09T16:36:11.650Z,2.70
2022-10-09T16:38:43.638Z,2.40
2022-10-09T16:41:19.059Z,2.13
2022-10-09T16:43:54.036Z,2.27
2022-10-09T16:46:32.316Z,1.77
2022-10-09T16:49:04.351Z,1.73
2022-10-09T16:51:36.649Z,1.60
2022-10-09T16:54:09.989Z,1.67
2022-10-09T16:56:41.834Z,2.00
2022-10-09T16:59:13.842Z,2.17
2022-10-09T17:01:47.628Z,2.60
2022-10-09T17:04:19.676Z,2.87
2022-10-09T17:06:52.334Z,3.67
2022-10-09T17:09:24.186Z,2.53
2022-10-09T17:11:57.227Z,3.60
2022-10-09T17:14:28.961Z,3.40
2022-10-09T17:17:00.687Z,6.37
2022-10-09T17:19:32.800Z,20.10
2022-10-09T17:22:04.998Z,29.43
2022-10-09T17:24:36.936Z,6.80
2022-10-09T17:27:09.942Z,2.53
2022-10-09T17:29:41.721Z,2.77
2022-10-09T17:32:13.674Z,2.20
2022-10-09T17:34:46.090Z,2.40
2022-10-09T17:37:18.026Z,2.40
2022-10-09T17:39:52.256Z,3.90
2022-10-09T17:42:24.302Z,5.03
2022-10-09T17:44:56.269Z,5.40
2022-10-09T17:47:28.499Z,5.43
2022-10-09T17:50:00.275Z,5.33
2022-10-09T17:52:32.249Z,5.57
2022-10-09T17:55:04.390Z,2.93
2022-10-09T17:57:36.170Z,2.00
2022-10-09T18:00:10.337Z,5.23
2022-10-09T18:02:42.069Z,2.70
2022-10-09T18:05:15.175Z,6.13
2022-10-09T18:07:47.172Z,5.43
2022-10-09T18:10:20.750Z,7.13
2022-10-09T18:12:52.518Z,3.60
2022-10-09T18:15:24.248Z,2.67
2022-10-09T18:17:56.275Z,3.20
2022-10-09T18:20:30.296Z,2.57
2022-10-09T18:23:03.102Z,2.47
2022-10-09T18:25:35.305Z,1.70
2022-10-09T18:28:07.121Z,2.20
2022-10-09T18:30:43.081Z,1.73
2022-10-09T18:33:14.832Z,1.90
2022-10-09T18:35:46.682Z,1.73
2022-10-09T18:38:18.420Z,2.23
2022-10-09T18:40:50.132Z,2.20
2022-10-09T18:43:21.861Z,1.90
2022-10-09T18:45:53.934Z,2.13
2022-10-09T18:48:25.880Z,1.83
2022-10-09T18:50:58.672Z,1.30
2022-10-09T18:53:32.299Z,1.87
2022-10-09T18:56:05.229Z,1.70
2022-10-09T18:58:38.762Z,1.20
2022-10-09T19:01:10.598Z,1.67
2022-10-09T19:03:45.935Z,2.10
2022-10-09T19:06:21.156Z,5.37
2022-10-09T19:08:57.570Z,6.43
2022-10-09T19:11:32.753Z,5.67
2022-10-09T19:14:04.457Z,9.07
2022-10-09T19:16:36.276Z,10.03
2022-10-09T19:19:08.133Z,10.00
2022-10-09T19:21:43.790Z,6.50
2022-10-09T19:24:15.518Z,6.50
2022-10-09T19:26:47.230Z,12.83
2022-10-09T19:29:18.995Z,8.20
2022-10-09T19:31:51.236Z,6.50
2022-10-09T19:34:23.003Z,6.00
2022-10-09T19:36:54.778Z,5.07
2022-10-09T19:39:27.805Z,3.20
2022-10-09T19:41:59.630Z,2.83
2022-10-09T19:44:31.361Z,3.17
2022-10-09T19:47:03.195Z,2.80
2022-10-09T19:49:34.916Z,3.50
2022-10-09T19:52:07.058Z,3.60
2022-10-09T19:54:40.080Z,3.33
2022-10-09T19:57:11.838Z,3.30
2022-10-09T19:59:43.713Z,3.80
2022-10-09T20:02:15.456Z,3.60
2022-10-09T20:04:48.995Z,3.53
2022-10-09T20:07:20.753Z,4.07
2022-10-09T20:09:52.486Z,3.87
2022-10-09T20:12:24.463Z,3.80
2022-10-09T20:14:56.210Z,3.63
2022-10-09T20:17:28.045Z,4.73
2022-10-09T20:19:59.804Z,5.37
2022-10-09T20:22:31.705Z,4.30
2022-10-09T20:25:03.877Z,3.60
2022-10-09T20:27:35.619Z,3.30
2022-10-09T20:30:07.965Z,3.53
2022-10-09T20:32:39.677Z,3.53
2022-10-09T20:35:11.505Z,2.83
2022-10-09T20:37:43.220Z,2.57
2022-10-09T20:40:15.216Z,3.30
2022-10-09T20:42:47.130Z,2.73
2022-10-09T20:45:19.153Z,2.20
2022-10-09T20:47:50.859Z,3.23
2022-10-09T20:50:22.671Z,3.07
2022-10-09T20:52:54.633Z,3.40
2022-10-09T20:55:26.416Z,2.93
2022-10-09T20:57:58.473Z,3.20
2022-10-09T21:00:30.413Z,3.00
2022-10-09T21:03:02.155Z,3.10
2022-10-09T21:05:39.451Z,3.90
2022-10-09T21:08:11.297Z,3.13
2022-10-09T21:10:47.830Z,3.27
2022-10-09T21:13:19.666Z,3.60
2022-10-09T21:15:51.516Z,3.30
2022-10-09T21:18:23.262Z,3.80
2022-10-09T21:20:55.013Z,4.33
2022-10-09T21:23:27.157Z,3.43
2022-10-09T21:25:59.055Z,3.90
2022-10-09T21:28:31.030Z,3.40
2022-10-09T21:31:08.476Z,2.83
2022-10-09T21:33:40.263Z,3.37
2022-10-09T21:36:19.650Z,3.10
2022-10-09T21:38:51.450Z,3.20
2022-10-09T21:41:23.822Z,3.00
2022-10-09T21:43:55.784Z,2.90
2022-10-09T21:46:27.733Z,2.97
2022-10-09T21:49:00.820Z,2.97
2022-10-09T21:51:34.189Z,3.30
2022-10-09T21:54:06.119Z,3.07
2022-10-09T21:56:37.831Z,3.37
2022-10-09T21:59:09.619Z,3.03
2022-10-09T22:01:41.468Z,3.23
2022-10-09T22:04:13.213Z,2.67
2022-10-09T22:06:45.024Z,2.47
2022-10-09T22:09:16.781Z,2.77
2022-10-09T22:11:48.495Z,2.60
2022-10-09T22:14:20.223Z,2.60
2022-10-09T22:16:52.052Z,2.40
2022-10-09T22:19:23.800Z,3.20
2022-10-09T22:21:55.512Z,3.47
2022-10-09T22:24:29.403Z,3.10
2022-10-09T22:27:01.136Z,3.07
2022-10-09T22:29:33.444Z,2.93
2022-10-09T22:32:05.962Z,3.37
2022-10-09T22:34:37.814Z,3.07
2022-10-09T22:37:09.564Z,2.90
2022-10-09T22:39:41.276Z,3.43
2022-10-09T22:42:12.989Z,3.10
2022-10-09T22:44:44.769Z,2.90
2022-10-09T22:47:16.472Z,3.13
2022-10-09T22:49:50.168Z,3.27
2022-10-09T22:52:21.866Z,3.60
2022-10-09T22:54:54.333Z,2.97
2022-10-09T22:57:26.043Z,2.63
2022-10-09T22:59:57.822Z,2.27
2022-10-09T23:02:29.533Z,2.40
2022-10-09T23:05:01.342Z,2.30
2022-10-09T23:07:33.149Z,2.50
2022-10-09T23:10:05.288Z,2.50
2022-10-09T23:12:36.989Z,2.23
2022-10-09T23:15:09.061Z,2.53
2022-10-09T23:17:40.777Z,2.43
2022-10-09T23:20:12.520Z,2.43
2022-10-09T23:22:44.316Z,2.00
2022-10-09T23:25:16.137Z,2.03
2022-10-09T23:27:47.844Z,1.90
2022-10-09T23:30:19.554Z,1.90
2022-10-09T23:32:54.315Z,2.10
2022-10-09T23:35:26.108Z,2.07
2022-10-09T23:37:57.861Z,1.60
2022-10-09T23:40:29.584Z,2.20
2022-10-09T23:43:01.293Z,2.13
2022-10-09T23:45:33.134Z,1.73
2022-10-09T23:48:04.843Z,1.43
2022-10-09T23:50:36.571Z,2.10
2022-10-09T23:53:08.304Z,1.67
2022-10-09T23:55:40.020Z,1.50
2022-10-09T23:58:13.678Z,1.60
